Time;durP1;ratioP1;P1;durP2;ratioP2;P2;SDS_P1;SDS_P2;PMS_P1;PMS_P2;Temp;Humidity;BMP_temperature;BMP_pressure;BME280_temperature;BME280_humidity;BME280_pressure;Samples;Min_cycle;Max_cycle;Signal;HPM_P1;HPM_P2
2021/11/08 00:00:55;;;;;;;;;5.75;5.00;;;;;20.03;45.68;101806.66;5056504;28;47023;-54
2021/11/08 00:03:27;;;;;;;;;8.25;7.50;;;;;20.03;45.76;101806.66;5056620;28;45780;-57
2021/11/08 00:05:53;;;;;;;;;6.75;6.50;;;;;19.99;46.00;101799.81;5056843;28;45566;-58
2021/11/08 00:08:24;;;;;;;;;8.75;6.00;;;;;20.02;46.08;101798.84;5038650;28;45305;-54
2021/11/08 00:10:50;;;;;;;;;7.75;6.25;;;;;20.00;46.10;101790.13;5038896;28;46704;-56
2021/11/08 00:13:16;;;;;;;;;9.75;6.75;;;;;20.01;46.39;101784.81;5056672;28;45910;-56
2021/11/08 00:20:43;;;;;;;;;9.75;7.75;;;;;19.98;46.61;101792.84;5056408;28;45455;-55
2021/11/08 00:23:10;;;;;;;;;8.00;7.75;;;;;20.00;46.17;101791.00;5056314;28;45289;-54
2021/11/08 00:25:39;;;;;;;;;9.25;8.00;;;;;19.99;46.39;101785.78;5056458;28;45269;-57
2021/11/08 00:28:07;;;;;;;;;8.00;8.00;;;;;19.98;46.58;101797.22;5056569;28;45486;-57
2021/11/08 00:30:33;;;;;;;;;10.75;9.75;;;;;19.98;46.71;101790.22;5056148;28;45353;-54
2021/11/08 00:32:59;;;;;;;;;9.50;8.00;;;;;19.97;46.61;101780.59;5056370;28;45249;-58
2021/11/08 00:35:24;;;;;;;;;12.00;9.25;;;;;19.97;46.42;101796.38;5056203;28;45286;-57
2021/11/08 00:37:50;;;;;;;;;13.00;7.75;;;;;19.99;46.11;101796.31;5038612;28;45206;-57
2021/11/08 00:40:17;;;;;;;;;7.25;6.50;;;;;20.00;46.03;101795.41;5058420;28;46326;-57
2021/11/08 00:42:43;;;;;;;;;9.00;7.25;;;;;19.99;46.54;101791.94;5059574;28;45288;-58
2021/11/08 00:45:08;;;;;;;;;8.50;7.75;;;;;19.98;46.26;101798.09;5041541;28;45421;-52
2021/11/08 00:47:35;;;;;;;;;8.00;8.00;;;;;20.00;45.98;101801.53;5059795;28;45585;-51
2021/11/08 00:50:00;;;;;;;;;9.00;7.25;;;;;20.00;46.64;101795.41;5059776;28;47280;-51
2021/11/08 00:52:26;;;;;;;;;13.50;9.25;;;;;20.00;46.24;101782.25;5041750;28;45694;-54
2021/11/08 00:54:51;;;;;;;;;7.75;5.50;;;;;20.01;46.71;101790.06;5059666;28;45241;-49
2021/11/08 00:57:22;;;;;;;;;8.25;6.75;;;;;20.00;46.31;101791.00;5059930;28;45573;-51
2021/11/08 00:59:51;;;;;;;;;9.50;7.00;;;;;19.98;46.67;101791.97;5059281;28;46576;-51
2021/11/08 01:02:17;;;;;;;;;6.75;6.75;;;;;20.02;46.73;101796.22;5059531;28;45361;-56
2021/11/08 01:04:43;;;;;;;;;8.00;8.00;;;;;20.02;47.07;101798.84;5059518;28;45216;-56
2021/11/08 01:07:09;;;;;;;;;12.25;8.25;;;;;20.01;46.71;101812.91;5059514;28;45253;-57
2021/11/08 01:09:35;;;;;;;;;4.25;2.50;;;;;20.02;47.39;101809.38;5059340;28;46494;-57
2021/11/08 01:12:00;;;;;;;;;7.00;5.75;;;;;20.01;46.87;101799.75;5059553;28;45219;-58
2021/11/08 01:14:26;;;;;;;;;8.00;6.75;;;;;20.01;47.43;101795.31;5059213;28;45262;-56
2021/11/08 01:16:59;;;;;;;;;6.50;6.50;;;;;19.98;47.44;101797.22;5059511;28;45322;-56
2021/11/08 01:19:27;;;;;;;;;8.75;8.00;;;;;20.03;47.01;101805.81;5059011;28;46146;-56
2021/11/08 01:21:53;;;;;;;;;13.25;7.25;;;;;20.00;47.42;101796.28;5059020;28;45861;-55
2021/11/08 01:24:20;;;;;;;;;12.00;7.25;;;;;20.02;47.46;101793.56;5059074;28;45413;-56
2021/11/08 01:26:48;;;;;;;;;9.00;7.00;;;;;20.01;47.46;101795.31;5059294;28;45411;-56
2021/11/08 01:29:13;;;;;;;;;7.75;7.00;;;;;20.03;47.67;101800.56;5058727;28;45419;-51
2021/11/08 01:31:39;;;;;;;;;7.50;6.25;;;;;20.02;47.55;101790.94;5058888;28;45235;-54
2021/11/08 01:34:04;;;;;;;;;8.50;8.00;;;;;20.01;47.76;101784.81;5058993;28;45431;-52
2021/11/08 01:36:36;;;;;;;;;10.75;8.25;;;;;20.03;47.51;101795.28;5059444;28;45289;-51
2021/11/08 01:39:24;;;;;;;;;4.00;4.00;;;;;20.03;47.35;101793.50;5059036;28;46373;-53
2021/11/08 01:41:50;;;;;;;;;10.00;8.50;;;;;20.01;47.33;101790.06;5040692;28;45748;-56
2021/11/08 01:44:16;;;;;;;;;13.75;8.75;;;;;20.02;47.44;101789.16;5058805;28;45229;-57
2021/11/08 01:46:42;;;;;;;;;9.00;6.50;;;;;20.02;47.46;101783.91;5058943;28;45586;-56
2021/11/08 01:49:08;;;;;;;;;7.00;6.50;;;;;20.03;47.38;101785.59;5058460;28;46653;-57
2021/11/08 01:51:35;;;;;;;;;7.25;7.25;;;;;20.02;47.74;101783.91;5057971;28;45361;-50
2021/11/08 01:54:06;;;;;;;;;8.00;8.00;;;;;20.02;48.06;101780.41;5058921;28;45398;-56
2021/11/08 01:56:33;;;;;;;;;8.50;6.75;;;;;20.02;47.56;101781.25;5059278;28;45395;-54
2021/11/08 01:58:59;;;;;;;;;7.50;6.75;;;;;20.01;47.43;101771.66;5058397;28;46562;-54
2021/11/08 02:01:25;;;;;;;;;7.00;6.75;;;;;20.03;47.66;101782.97;5058599;28;45929;-54
2021/11/08 02:03:50;;;;;;;;;11.75;8.50;;;;;19.98;47.90;101774.41;5058544;28;45262;-57
2021/11/08 02:06:15;;;;;;;;;5.50;5.50;;;;;20.01;47.65;101776.06;5058547;28;45538;-51
2021/11/08 02:08:41;;;;;;;;;7.25;7.00;;;;;20.02;48.08;101777.78;5040029;28;47332;-54
2021/11/08 02:11:07;;;;;;;;;8.75;7.75;;;;;20.01;47.49;101776.91;5058255;28;45474;-56
2021/11/08 02:13:32;;;;;;;;;12.75;7.75;;;;;20.02;47.90;101776.00;5058726;28;45347;-56
2021/11/08 02:15:58;;;;;;;;;9.00;7.50;;;;;20.00;47.71;101769.09;5058565;28;45158;-58
2021/11/08 02:18:24;;;;;;;;;9.25;7.75;;;;;19.99;48.01;101770.88;5057942;28;46002;-56
2021/11/08 02:20:51;;;;;;;;;7.25;5.25;;;;;20.01;47.99;101781.34;5058158;28;45415;-54
2021/11/08 02:23:19;;;;;;;;;8.00;6.50;;;;;19.99;47.94;101773.50;5057975;28;45336;-57
2021/11/08 02:25:47;;;;;;;;;8.25;7.00;;;;;20.00;48.04;101771.72;5058468;28;45951;-55
2021/11/08 02:28:13;;;;;;;;;7.00;6.00;;;;;20.00;47.76;101774.34;5057936;28;45392;-57
2021/11/08 02:30:40;;;;;;;;;9.75;5.00;;;;;20.00;47.88;101772.59;5058023;28;45380;-57
2021/11/08 02:33:09;;;;;;;;;11.75;8.00;;;;;20.01;47.54;101773.44;5058132;28;45383;-53
2021/11/08 02:35:36;;;;;;;;;8.75;6.50;;;;;20.00;48.18;101766.47;5058232;28;45395;-53
2021/11/08 02:38:04;;;;;;;;;10.00;8.00;;;;;20.00;47.59;101764.69;5040192;28;45528;-54
2021/11/08 02:40:30;;;;;;;;;8.25;7.25;;;;;19.97;47.68;101762.19;5057765;28;45367;-58
2021/11/08 02:43:00;;;;;;;;;4.75;2.75;;;;;19.99;48.10;101773.50;5058127;28;45222;-54
2021/11/08 02:45:29;;;;;;;;;7.50;5.50;;;;;19.99;47.78;101762.97;5040092;28;45415;-53
2021/11/08 02:47:55;;;;;;;;;7.50;7.00;;;;;20.00;47.69;101763.81;5039512;28;47901;-57
2021/11/08 02:50:25;;;;;;;;;8.50;7.00;;;;;19.99;47.63;101764.75;5057523;28;45179;-55
2021/11/08 02:52:52;;;;;;;;;8.00;4.75;;;;;19.97;47.84;101762.19;5057321;28;45270;-56
2021/11/08 02:55:22;;;;;;;;;8.25;6.75;;;;;19.97;47.59;101762.19;5057883;28;45482;-54
2021/11/08 02:57:48;;;;;;;;;8.00;6.00;;;;;19.97;48.10;101763.94;5057570;28;45443;-49
2021/11/08 03:00:15;;;;;;;;;7.00;7.00;;;;;19.97;48.19;101766.56;5057568;28;45470;-51
2021/11/08 03:02:42;;;;;;;;;9.00;7.75;;;;;19.97;48.03;101763.94;5057662;28;45499;-58
2021/11/08 03:05:12;;;;;;;;;6.00;6.00;;;;;19.98;48.16;101766.53;5057478;28;45601;-57
2021/11/08 03:07:38;;;;;;;;;6.75;6.75;;;;;19.97;47.63;101762.19;5057244;28;46395;-57
2021/11/08 03:10:15;;;;;;;;;8.00;7.00;;;;;19.96;48.00;101770.97;5057607;28;45411;-58
2021/11/08 03:12:43;;;;;;;;;9.25;6.50;;;;;19.98;48.06;101771.78;5057580;28;45425;-50
2021/11/08 03:15:11;;;;;;;;;7.00;6.25;;;;;19.95;47.79;101765.78;5039656;28;45573;-56
2021/11/08 03:17:43;;;;;;;;;10.00;7.25;;;;;19.95;47.57;101769.25;5057396;28;46472;-58
2021/11/08 03:20:13;;;;;;;;;7.25;6.25;;;;;19.95;47.89;101774.53;5057030;28;45273;-57
2021/11/08 03:22:45;;;;;;;;;5.50;5.25;;;;;19.96;47.97;101778.00;5039318;28;45378;-58
2021/11/08 03:25:48;;;;;;;;;9.25;6.50;;;;;19.95;48.03;101773.69;5057477;28;45634;-58
2021/11/08 03:28:05;;;;;;;;;10.00;7.00;;;;;19.95;48.06;101773.69;5054626;28;46292;-56
2021/11/08 03:30:36;;;;;;;;;6.00;5.25;;;;;19.94;47.53;101775.44;5057053;28;45313;-54
2021/11/08 03:33:04;;;;;;;;;5.75;5.00;;;;;19.95;47.92;101782.41;5039085;28;45353;-55
2021/11/08 03:35:29;;;;;;;;;7.75;7.75;;;;;19.94;47.70;101780.69;5057235;28;45305;-58
2021/11/08 03:37:56;;;;;;;;;8.50;6.00;;;;;19.93;47.66;101777.22;5056838;28;45437;-57
2021/11/08 03:40:28;;;;;;;;;5.75;5.75;;;;;19.96;47.59;101788.53;5056718;28;45348;-54
2021/11/08 03:42:55;;;;;;;;;8.00;7.25;;;;;19.94;47.77;101780.69;5057019;28;45181;-54
2021/11/08 03:45:22;;;;;;;;;6.25;6.00;;;;;19.95;47.45;101784.22;5057136;28;45601;-55
2021/11/08 03:47:48;;;;;;;;;7.25;6.00;;;;;19.92;47.87;101778.13;5038610;28;47182;-54
2021/11/08 03:50:14;;;;;;;;;6.75;5.75;;;;;19.92;47.55;101774.63;5056586;28;45340;-51
2021/11/08 03:52:40;;;;;;;;;6.50;5.75;;;;;19.95;47.94;101771.06;5056813;28;45339;-52
2021/11/08 03:55:09;;;;;;;;;6.50;5.50;;;;;19.93;47.45;101773.72;5057201;28;45360;-56
2021/11/08 03:57:34;;;;;;;;;6.75;4.00;;;;;19.93;47.57;101771.97;5056863;28;45242;-58
2021/11/08 03:59:59;;;;;;;;;8.75;5.25;;;;;19.93;47.73;101771.09;5056557;28;45375;-54
2021/11/08 04:02:25;;;;;;;;;5.00;5.00;;;;;19.93;47.44;101768.47;5056634;28;45500;-58
2021/11/08 04:04:50;;;;;;;;;7.25;6.75;;;;;19.93;47.73;101761.44;5056665;28;45355;-58
2021/11/08 04:07:16;;;;;;;;;6.00;6.00;;;;;19.94;47.28;101764.91;5056283;28;45491;-55
2021/11/08 04:09:43;;;;;;;;;5.75;5.25;;;;;19.92;47.23;101766.75;5056413;28;45474;-54
2021/11/08 04:12:10;;;;;;;;;8.00;6.75;;;;;19.89;47.48;101756.34;5056983;28;45397;-54
2021/11/08 04:14:37;;;;;;;;;7.50;6.25;;;;;19.92;47.37;101767.63;5056462;28;45547;-56
2021/11/08 04:17:04;;;;;;;;;6.75;6.75;;;;;19.93;47.23;101768.47;5056264;28;46390;-57
2021/11/08 04:19:30;;;;;;;;;6.75;6.75;;;;;19.91;47.17;101770.28;5056314;28;45834;-53
2021/11/08 04:21:58;;;;;;;;;7.00;6.00;;;;;19.92;47.52;101777.25;5056412;28;45241;-57
2021/11/08 04:24:24;;;;;;;;;8.50;6.25;;;;;19.90;47.27;101777.34;5056423;28;45343;-54
2021/11/08 04:26:49;;;;;;;;;5.25;4.00;;;;;19.92;47.09;101778.13;5056112;28;46406;-56
2021/11/08 04:29:14;;;;;;;;;7.00;7.00;;;;;19.91;47.17;101780.81;5056132;28;45496;-58
2021/11/08 04:31:41;;;;;;;;;9.25;6.75;;;;;19.91;47.40;101772.91;5056606;28;45326;-56
2021/11/08 04:41:56;;;;;;;;;5.00;4.75;;;;;19.89;46.86;101783.50;5056399;28;45286;-56
2021/11/08 04:47:10;;;;;;;;;8.50;5.75;;;;;19.91;46.98;101794.84;5055962;28;45331;-56
2021/11/08 04:52:23;;;;;;;;;7.50;6.75;;;;;19.91;46.67;101796.59;5056091;28;45238;-55
2021/11/08 04:57:40;;;;;;;;;4.75;4.75;;;;;19.90;46.62;101795.75;5055796;28;46044;-58
2021/11/08 05:22:49;;;;;;;;;6.00;6.00;;;;;19.93;47.39;101789.50;5055539;28;45213;-54
2021/11/08 05:30:08;;;;;;;;;6.50;6.25;;;;;20.06;46.68;101784.66;5058937;28;45417;-56
2021/11/08 05:32:40;;;;;;;;;6.25;5.00;;;;;20.11;47.08;101792.38;5058944;28;45845;-57
2021/11/08 05:35:08;;;;;;;;;6.75;4.75;;;;;20.18;46.71;101785.94;5059070;28;45241;-54
2021/11/08 05:37:35;;;;;;;;;6.00;4.50;;;;;20.23;47.18;101783.97;5059179;28;45529;-57
2021/11/08 05:40:08;;;;;;;;;6.25;4.25;;;;;20.27;47.03;101793.47;5058738;28;46949;-58
2021/11/08 05:42:34;;;;;;;;;3.50;3.50;;;;;20.29;46.57;101791.66;5040640;28;45779;-55
2021/11/08 05:45:00;;;;;;;;;5.00;5.00;;;;;20.34;47.18;101805.47;5058817;28;45275;-56
2021/11/08 05:47:26;;;;;;;;;7.00;6.00;;;;;20.37;47.17;101802.72;5058845;28;45340;-56
2021/11/08 05:49:53;;;;;;;;;5.00;5.00;;;;;20.38;47.09;101804.44;5058469;28;47321;-57
2021/11/08 05:52:18;;;;;;;;;7.00;7.00;;;;;20.42;46.86;101809.59;5058723;28;45400;-56
2021/11/08 05:54:46;;;;;;;;;7.00;5.75;;;;;20.44;46.59;101805.97;5058952;28;45276;-57
2021/11/08 06:51:40;;;;;;;;;5.50;5.50;;;;;20.51;45.32;101860.13;5057995;28;45281;-50
2021/11/08 06:54:06;;;;;;;;;5.00;4.00;;;;;20.52;45.31;101861.00;5057338;28;45387;-52
2021/11/08 06:56:49;;;;;;;;;5.50;5.50;;;;;20.53;45.31;101862.72;5057572;28;45368;-48
2021/11/08 06:59:15;;;;;;;;;6.25;5.50;;;;;20.48;45.50;101854.13;5057851;28;45460;-49
2021/11/08 07:01:43;;;;;;;;;5.00;4.00;;;;;20.52;45.14;101868.91;5057766;28;45253;-48
2021/11/08 07:04:09;;;;;;;;;4.00;4.00;;;;;20.51;45.58;101870.66;5039189;28;47094;-53
2021/11/08 07:06:34;;;;;;;;;4.25;4.25;;;;;20.51;45.47;101872.44;5057122;28;45477;-47
2021/11/08 07:09:00;;;;;;;;;3.75;3.75;;;;;20.53;45.69;101879.34;5057489;28;45355;-51
2021/11/08 07:11:25;;;;;;;;;4.25;4.25;;;;;20.51;45.71;101873.28;5057561;28;45303;-50
2021/11/08 07:13:50;;;;;;;;;5.25;5.25;;;;;20.54;45.31;101880.22;5057283;28;45407;-50
2021/11/08 07:16:16;;;;;;;;;8.50;5.25;;;;;20.53;45.26;101878.50;5057573;28;45344;-50
2021/11/08 07:18:41;;;;;;;;;3.75;3.75;;;;;20.48;45.43;101875.19;5057370;28;45291;-50
2021/11/08 07:21:06;;;;;;;;;4.00;4.00;;;;;20.52;44.98;101882.06;5057432;28;45525;-50
2021/11/08 07:23:32;;;;;;;;;5.00;4.25;;;;;20.50;44.93;101876.00;5056901;28;46097;-47
2021/11/08 07:25:57;;;;;;;;;6.00;4.00;;;;;20.53;44.85;101883.78;5057084;28;45302;-48
2021/11/08 07:28:23;;;;;;;;;5.50;5.25;;;;;20.50;45.10;101879.50;5057036;28;45296;-52
2021/11/08 07:30:48;;;;;;;;;6.50;4.75;;;;;20.51;44.91;101885.59;5039794;28;45546;-50
2021/11/08 07:33:16;;;;;;;;;5.50;3.50;;;;;20.49;44.95;101887.44;5057037;28;45466;-51
2021/11/08 07:35:43;;;;;;;;;4.75;4.75;;;;;20.48;44.40;101889.22;5056960;28;46029;-54
2021/11/08 07:38:08;;;;;;;;;4.50;3.50;;;;;20.46;44.67;101890.19;5057062;28;45522;-50
2021/11/08 07:40:33;;;;;;;;;8.50;4.00;;;;;20.45;44.23;101896.38;5057292;28;45290;-53
2021/11/08 07:42:59;;;;;;;;;8.25;6.25;;;;;20.45;44.05;101896.38;5056803;28;45432;-51
2021/11/08 07:45:26;;;;;;;;;8.25;8.25;;;;;20.43;44.47;101898.22;5056916;28;45348;-54
2021/11/08 07:47:53;;;;;;;;;5.25;5.25;;;;;20.42;44.23;101901.75;5056775;28;45194;-53
2021/11/08 07:50:18;;;;;;;;;7.00;5.00;;;;;20.41;44.43;101906.16;5056449;28;45203;-56
2021/11/08 07:52:43;;;;;;;;;5.50;5.00;;;;;20.41;43.72;101907.94;5056653;28;45415;-57
2021/11/08 07:55:09;;;;;;;;;7.25;5.75;;;;;20.39;43.72;101905.38;5056635;28;45369;-57
2021/11/08 07:57:34;;;;;;;;;6.75;5.00;;;;;20.38;44.14;101901.88;5056812;28;45769;-57
2021/11/08 08:00:00;;;;;;;;;3.25;3.25;;;;;20.39;43.78;101908.84;5056983;28;45783;-55
2021/11/08 08:02:25;;;;;;;;;9.50;6.25;;;;;20.39;43.98;101908.00;5056518;28;45640;-54
2021/11/08 08:04:50;;;;;;;;;5.25;4.50;;;;;20.41;43.80;101906.16;5056309;28;45268;-51
2021/11/08 08:07:16;;;;;;;;;6.50;6.50;;;;;20.42;43.33;101909.66;5056976;28;45309;-54
2021/11/08 08:09:42;;;;;;;;;5.75;5.25;;;;;20.42;43.67;101909.66;5056660;28;45347;-53
2021/11/08 08:12:08;;;;;;;;;8.25;6.00;;;;;20.41;43.79;101918.47;5056379;28;45427;-51
2021/11/08 08:14:34;;;;;;;;;7.00;5.50;;;;;20.42;43.78;101913.13;5056443;28;45339;-56
2021/11/08 08:17:01;;;;;;;;;6.50;6.00;;;;;20.42;43.63;101917.56;5056469;28;45410;-57
2021/11/08 08:19:26;;;;;;;;;7.75;6.00;;;;;20.37;43.47;101909.84;5056853;28;45485;-56
2021/11/08 08:21:52;;;;;;;;;7.75;6.50;;;;;20.42;43.48;101925.47;5056244;28;45368;-52
2021/11/08 08:24:17;;;;;;;;;6.50;6.00;;;;;20.42;43.57;101920.19;5056720;28;45285;-50
2021/11/08 08:26:43;;;;;;;;;6.50;6.00;;;;;20.41;43.19;101915.84;5056486;28;45357;-48
2021/11/08 08:29:11;;;;;;;;;4.75;4.75;;;;;20.44;43.32;101926.28;5056558;28;45573;-57
2021/11/08 08:31:39;;;;;;;;;10.25;5.75;;;;;20.42;43.18;101922.84;5038096;28;47226;-57
2021/11/08 08:34:05;;;;;;;;;6.75;6.00;;;;;20.42;43.46;101921.03;5056004;28;45888;-57
2021/11/08 08:36:31;;;;;;;;;7.25;6.00;;;;;20.44;43.62;101928.91;5038290;28;45372;-56
2021/11/08 08:38:57;;;;;;;;;7.00;5.00;;;;;20.41;43.31;101929.84;5056517;28;45246;-53
2021/11/08 08:41:23;;;;;;;;;5.50;5.50;;;;;20.42;43.15;101925.47;5056033;28;45247;-50
2021/11/08 08:43:48;;;;;;;;;6.50;6.50;;;;;20.42;43.35;101928.09;5056298;28;45451;-56
2021/11/08 08:46:15;;;;;;;;;5.25;5.25;;;;;20.42;43.50;101933.38;5056188;28;45231;-54
2021/11/08 08:48:41;;;;;;;;;6.25;6.25;;;;;20.42;43.49;101933.38;5056052;28;45320;-58
2021/11/08 08:51:07;;;;;;;;;6.75;6.00;;;;;20.41;43.44;101942.19;5054920;28;46702;-57
2021/11/08 08:53:34;;;;;;;;;6.00;4.25;;;;;20.39;43.37;101940.47;5037941;28;45982;-57
2021/11/08 08:56:01;;;;;;;;;7.50;4.75;;;;;20.39;42.81;101936.97;5056193;28;45396;-56
2021/11/08 08:58:27;;;;;;;;;6.50;5.00;;;;;20.38;42.97;101933.47;5038219;28;45352;-55
2021/11/08 09:00:52;;;;;;;;;11.00;6.00;;;;;20.39;42.81;101940.47;5058059;28;46155;-57
2021/11/08 09:03:19;;;;;;;;;4.50;4.25;;;;;20.37;43.14;101937.00;5059324;28;45328;-58
2021/11/08 09:05:46;;;;;;;;;5.00;4.25;;;;;20.39;43.55;101936.97;5059406;28;45202;-57
2021/11/08 09:08:12;;;;;;;;;5.00;5.00;;;;;20.37;43.14;101939.66;5059440;28;45499;-50
2021/11/08 09:10:38;;;;;;;;;8.75;6.00;;;;;20.37;43.07;101937.00;5059217;28;45258;-57
2021/11/08 09:13:05;;;;;;;;;11.75;5.75;;;;;20.37;43.26;101936.16;5059281;28;45455;-55
2021/11/08 09:15:33;;;;;;;;;6.50;5.50;;;;;20.37;43.35;101937.00;5059242;28;45411;-57
2021/11/08 09:17:59;;;;;;;;;6.25;5.00;;;;;20.37;43.26;101939.66;5059376;28;45345;-54
2021/11/08 09:20:26;;;;;;;;;5.50;4.75;;;;;20.36;43.22;101942.34;5058993;28;47172;-56
2021/11/08 09:22:52;;;;;;;;;5.00;4.75;;;;;20.36;43.19;101942.34;5059253;28;46493;-52
2021/11/08 09:25:19;;;;;;;;;5.50;5.50;;;;;20.36;43.06;101937.09;5041048;28;45330;-53
2021/11/08 09:27:47;;;;;;;;;6.00;6.00;;;;;20.34;43.22;101937.13;5059267;28;45373;-55
2021/11/08 09:30:16;;;;;;;;;5.50;4.50;;;;;20.35;43.17;101933.56;5058806;28;45509;-57
2021/11/08 09:32:43;;;;;;;;;6.25;3.00;;;;;20.35;43.22;101932.72;5058921;28;45388;-58
2021/11/08 09:35:09;;;;;;;;;8.25;5.00;;;;;20.37;43.28;101941.44;5059114;28;45278;-58
2021/11/08 09:37:42;;;;;;;;;8.00;6.25;;;;;20.34;43.08;101934.50;5041409;28;45435;-55
2021/11/08 09:40:08;;;;;;;;;4.00;4.00;;;;;20.35;43.29;101940.63;5041639;28;46157;-56
2021/11/08 09:42:35;;;;;;;;;6.75;5.25;;;;;20.34;43.29;101937.13;5058740;28;45870;-55
2021/11/08 09:45:03;;;;;;;;;6.00;5.50;;;;;20.34;43.23;101937.13;5058918;28;45438;-54
2021/11/08 09:47:29;;;;;;;;;5.50;5.00;;;;;20.31;42.83;101934.63;5059133;28;45316;-48
2021/11/08 09:49:59;;;;;;;;;4.75;4.00;;;;;20.34;42.77;101938.91;5058946;28;46041;-51
2021/11/08 09:52:26;;;;;;;;;9.25;6.25;;;;;20.33;42.94;101940.69;5058875;28;45875;-50
2021/11/08 09:54:53;;;;;;;;;4.00;4.00;;;;;20.32;42.68;101928.44;5059098;28;45241;-50
2021/11/08 09:57:23;;;;;;;;;8.00;5.50;;;;;20.33;42.87;101935.44;5058840;28;45220;-50
2021/11/08 09:59:48;;;;;;;;;4.75;4.00;;;;;20.34;42.81;101931.00;5058537;28;46317;-48
2021/11/08 10:02:14;;;;;;;;;7.25;5.00;;;;;20.33;42.84;101930.16;5058573;28;45441;-51
2021/11/08 10:04:44;;;;;;;;;4.50;4.50;;;;;20.35;42.93;101930.09;5058626;28;45477;-50
2021/11/08 10:07:11;;;;;;;;;7.00;5.00;;;;;20.34;42.80;101931.00;5058661;28;45328;-53
2021/11/08 10:09:38;;;;;;;;;7.00;6.00;;;;;20.35;42.89;101938.00;5058313;28;45198;-53
2021/11/08 10:12:12;;;;;;;;;4.75;4.00;;;;;20.33;42.70;101930.16;5057653;28;46051;-54
2021/11/08 10:14:40;;;;;;;;;6.75;5.00;;;;;20.36;42.98;101927.41;5058470;28;45447;-50
2021/11/08 10:17:06;;;;;;;;;8.75;6.00;;;;;20.38;43.26;101933.47;5058489;28;45399;-49
2021/11/08 10:19:34;;;;;;;;;5.00;5.00;;;;;20.39;43.24;101929.94;5058251;28;46385;-50
2021/11/08 10:22:01;;;;;;;;;5.00;5.00;;;;;20.44;42.70;101931.53;5058145;28;45289;-55
2021/11/08 10:24:34;;;;;;;;;5.75;4.50;;;;;20.49;43.19;101927.81;5058022;28;45285;-48
2021/11/08 10:27:02;;;;;;;;;10.75;5.25;;;;;20.53;42.75;101933.81;5058428;28;45230;-50
2021/11/08 10:29:29;;;;;;;;;5.00;5.00;;;;;20.58;42.64;101928.38;5057885;28;46105;-52
2021/11/08 10:32:00;;;;;;;;;7.75;5.00;;;;;20.61;42.76;101928.25;5058228;28;45312;-54
2021/11/08 10:34:26;;;;;;;;;4.00;4.00;;;;;20.68;42.61;101935.00;5058547;28;45423;-58
2021/11/08 10:37:04;;;;;;;;;5.75;4.75;;;;;20.73;42.40;101935.66;5058155;28;45651;-57
2021/11/08 10:39:36;;;;;;;;;5.00;5.00;;;;;20.78;42.45;101933.75;5057489;28;46993;-57
2021/11/08 10:42:02;;;;;;;;;4.75;3.75;;;;;20.84;42.69;101932.66;5057914;28;45279;-57
2021/11/08 10:44:29;;;;;;;;;7.75;4.50;;;;;20.85;42.40;101931.75;5058193;28;45410;-51
2021/11/08 10:47:04;;;;;;;;;3.50;3.25;;;;;20.92;42.45;101927.09;5058426;28;45318;-60
2021/11/08 10:49:38;;;;;;;;;3.75;3.75;;;;;20.95;42.59;101927.81;5057483;28;46367;-54
2021/11/08 10:52:04;;;;;;;;;6.75;5.00;;;;;21.00;42.50;101930.28;5057483;28;45469;-55
2021/11/08 10:54:36;;;;;;;;;5.75;3.75;;;;;21.05;42.56;101927.44;5057738;28;45427;-56
2021/11/08 10:57:12;;;;;;;;;6.50;5.75;;;;;21.06;42.27;101924.75;5057871;28;45545;-57
2021/11/08 10:59:44;;;;;;;;;4.75;4.75;;;;;21.10;41.98;101923.72;5057564;28;45550;-58
2021/11/08 11:02:13;;;;;;;;;6.75;4.25;;;;;21.11;42.41;101920.16;5057417;28;45240;-51
2021/11/08 11:04:44;;;;;;;;;5.75;3.75;;;;;21.12;42.06;101913.09;5057577;28;45398;-49
2021/11/08 11:07:32;;;;;;;;;6.25;5.00;;;;;21.16;42.23;101919.97;5057674;28;45518;-52
2021/11/08 11:10:15;;;;;;;;;5.75;4.00;;;;;21.16;42.32;101919.97;5039488;28;45482;-54
2021/11/08 11:12:43;;;;;;;;;6.00;3.75;;;;;21.17;41.90;101919.03;5057469;28;45224;-55
2021/11/08 11:15:11;;;;;;;;;4.75;3.00;;;;;21.20;41.77;101918.06;5057395;28;45418;-57
2021/11/08 11:17:45;;;;;;;;;4.00;4.00;;;;;21.20;42.27;101926.84;5057633;28;45435;-59
2021/11/08 11:20:13;;;;;;;;;3.50;3.50;;;;;21.23;42.22;101924.06;5056863;28;45689;-56
2021/11/08 11:22:44;;;;;;;;;4.25;3.50;;;;;21.25;42.10;101927.50;5057099;28;45746;-59
2021/11/08 11:25:11;;;;;;;;;3.00;3.00;;;;;21.26;41.64;101929.22;5056108;28;45440;-54
2021/11/08 11:27:47;;;;;;;;;4.00;4.00;;;;;21.25;42.11;101919.59;5057351;28;45531;-57
2021/11/08 11:30:23;;;;;;;;;2.00;2.00;;;;;21.28;41.64;101926.50;5056850;28;46442;-53
2021/11/08 11:33:01;;;;;;;;;5.75;4.25;;;;;21.27;41.53;101912.47;5039044;28;45300;-50
2021/11/08 11:35:29;;;;;;;;;4.25;3.00;;;;;21.25;41.90;101906.41;5057450;28;45178;-59
2021/11/08 11:38:01;;;;;;;;;3.00;2.00;;;;;21.27;41.63;101915.09;5057267;28;45543;-58
2021/11/08 11:40:29;;;;;;;;;3.75;3.75;;;;;21.28;41.51;101903.66;5056974;28;46252;-58
2021/11/08 11:42:57;;;;;;;;;7.50;4.50;;;;;21.27;40.91;101904.56;5056935;28;45417;-58
2021/11/08 11:45:23;;;;;;;;;4.00;4.00;;;;;21.26;41.06;101908.13;5057020;28;45251;-58
2021/11/08 11:47:56;;;;;;;;;6.00;3.50;;;;;21.26;40.94;101902.00;5056985;28;45240;-59
2021/11/08 11:50:23;;;;;;;;;6.50;5.00;;;;;21.25;40.81;101905.56;5056665;28;45567;-59
2021/11/08 11:52:49;;;;;;;;;4.00;4.00;;;;;21.24;40.99;101902.03;5056704;28;45391;-59
2021/11/08 11:55:15;;;;;;;;;5.75;3.00;;;;;21.23;40.73;101892.41;5056963;28;45409;-59
2021/11/08 11:57:40;;;;;;;;;4.00;4.00;;;;;21.23;40.63;101895.06;5056956;28;45227;-58
2021/11/08 12:00:07;;;;;;;;;14.75;7.75;;;;;21.21;40.32;101886.38;5056545;28;46242;-59
2021/11/08 12:02:33;;;;;;;;;11.25;8.50;;;;;21.19;39.24;101876.78;5056564;28;45850;-58
2021/11/08 12:04:58;;;;;;;;;11.75;8.75;;;;;21.17;39.32;101879.50;5056907;28;45395;-58
2021/11/08 12:07:24;;;;;;;;;27.00;19.50;;;;;21.15;39.43;101889.25;5056611;28;45329;-55
2021/11/08 12:09:50;;;;;;;;;73.25;54.75;;;;;21.12;39.62;101882.34;5056215;28;45664;-48
2021/11/08 12:12:23;;;;;;;;;81.75;70.25;;;;;21.11;39.07;101879.78;5056237;28;45445;-51
2021/11/08 12:14:56;;;;;;;;;70.50;52.75;;;;;21.09;38.86;101887.72;5056483;28;45370;-51
2021/11/08 12:17:21;;;;;;;;;76.25;60.50;;;;;21.05;38.44;101880.88;5056745;28;45384;-53
2021/11/08 12:19:47;;;;;;;;;183.33;154.67;;;;;21.04;38.88;101873.88;5056260;28;45614;-57
2021/11/08 12:22:15;;;;;;;;;176.75;151.75;;;;;21.03;38.80;101872.19;5056467;28;45490;-53
2021/11/08 12:24:41;;;;;;;;;166.00;142.00;;;;;21.01;38.22;101872.22;5056385;28;45395;-57
2021/11/08 12:27:12;;;;;;;;;73.00;57.50;;;;;21.03;37.68;101874.81;5056650;28;45438;-57
2021/11/08 12:29:49;;;;;;;;;69.25;54.50;;;;;21.00;37.34;101862.59;5056179;28;45840;-58
2021/11/08 12:32:15;;;;;;;;;46.50;36.50;;;;;20.91;36.44;101867.41;5056018;28;45399;-56
2021/11/08 12:34:47;;;;;;;;;38.25;30.00;;;;;20.81;36.38;101862.50;5056492;28;45367;-58
2021/11/08 12:37:14;;;;;;;;;62.75;47.25;;;;;20.72;36.66;101861.97;5059934;28;45340;-54
2021/11/08 12:39:43;;;;;;;;;18.50;16.00;;;;;20.69;35.89;101857.69;5059619;28;45433;-60
2021/11/08 12:42:12;;;;;;;;;74.00;58.00;;;;;20.69;36.03;101844.53;5059925;28;45313;-59
2021/11/08 12:44:46;;;;;;;;;65.50;50.00;;;;;20.73;37.09;101848.72;5059770;28;45340;-61
2021/11/08 12:47:14;;;;;;;;;52.75;40.50;;;;;20.82;36.75;101848.41;5059999;28;45232;-60
2021/11/08 12:49:50;;;;;;;;;19.50;17.50;;;;;20.93;36.11;101844.47;5059484;28;45502;-60
2021/11/08 12:52:31;;;;;;;;;54.25;39.00;;;;;20.93;35.97;101829.50;5059583;28;45896;-61
2021/11/08 12:55:11;;;;;;;;;55.00;42.25;;;;;20.98;36.61;101838.09;5059241;28;45309;-60
2021/11/08 12:57:38;;;;;;;;;52.00;39.00;;;;;21.01;36.40;101837.13;5059670;28;45502;-60
2021/11/08 13:00:18;;;;;;;;;53.00;41.00;;;;;21.05;36.52;101832.56;5059654;28;45409;-60
2021/11/08 13:02:56;;;;;;;;;54.50;41.25;;;;;21.06;36.53;101834.28;5059468;28;45362;-60
2021/11/08 13:05:29;;;;;;;;;47.50;37.25;;;;;21.07;36.16;101828.94;5059370;28;45577;-59
2021/11/08 13:07:57;;;;;;;;;59.25;43.50;;;;;21.06;36.53;101824.59;5041442;28;45379;-59